KACV/ACV METAR and TAF weather

Enter ICAO airport designator
Station Type Date Time Source
KACV METAR 2021/07/30 23:53 UTC NOAA

KACV 302353Z AUTO 23008KT 10SM CLR 15/11 A2995 RMK AO2 SLP148 T01500111 10183 20144 53004


Station Type Date Time Source
KACV Decoded METAR 2021/07/30 23:53 UTC NOAA

ARCATA/EUREKA ARCATA AIRPORT, CA, United States (KACV) 40-59N 124-06W 67M
Jul 30, 2021 - 07:53 PM EDT / 2021.07.30 2353 UTC
Wind: from the SW (230 degrees) at 9 MPH (8 KT):0
Visibility: 10 mile(s):0
Sky conditions: clear
Temperature: 59.0 F (15.0 C)
Dew Point: 52.0 F (11.1 C)
Relative Humidity: 77%
Pressure (altimeter): 29.95 in. Hg (1014 hPa)
Pressure tendency: 0.01 inches (0.4 hPa) higher than three hours ago
ob: KACV 302353Z AUTO 23008KT 10SM CLR 15/11 A2995 RMK AO2 SLP148 T01500111 10183 20144 53004
cycle: 0

Station Type Date Time Source
KACV TAF 2021/07/30 18:36 UTC NOAA

TAF KACV 301734Z 3018/3118 23003KT P6SM SCT004
FM302000 22003KT 5SM BR BKN005
FM310100 23004KT 1 1/2SM BR OVC003
FM310500 20003KT 1/4SM FG OVC002

Example: see airport list